Time;durP1;ratioP1;P1;durP2;ratioP2;P2;SDS_P1;SDS_P2;PMS_P1;PMS_P2;Temp;Humidity;BMP_temperature;BMP_pressure;BME280_temperature;BME280_humidity;BME280_pressure;Samples;Min_cycle;Max_cycle;Signal;HPM_P1;HPM_P2
2022/01/30 00:02:01;;;;;;;1.38;0.90;;;22.90;77.80;;;;;;4987979;28;95883;-61
2022/01/30 00:04:32;;;;;;;;;;;23.00;78.10;;;;;;4999869;28;95994;-61
2022/01/30 00:07:02;;;;;;;2.42;0.93;;;23.00;78.00;;;;;;5006077;28;95956;-61
2022/01/30 00:09:33;;;;;;;1.35;0.82;;;23.10;77.90;;;;;;5005843;28;95615;-62
2022/01/30 00:12:05;;;;;;;0.75;0.70;;;23.10;78.10;;;;;;5007726;28;95928;-62
2022/01/30 00:14:38;;;;;;;3.88;0.95;;;23.20;68.40;;;;;;5003671;28;96487;-60
2022/01/30 00:17:17;;;;;;;2.70;0.85;;;23.20;78.20;;;;;;5000209;28;95804;-61
2022/01/30 00:19:56;;;;;;;2.22;0.90;;;23.20;78.20;;;;;;5009066;28;95783;-61
2022/01/30 00:25:12;;;;;;;1.98;0.93;;;23.10;78.60;;;;;;5000947;28;96616;-60
2022/01/30 00:27:48;;;;;;;3.80;1.05;;;23.10;79.20;;;;;;5003256;28;95883;-60
2022/01/30 00:30:19;;;;;;;2.67;1.30;;;23.10;78.80;;;;;;4997870;28;97533;-60
2022/01/30 00:32:52;;;;;;;1.85;1.20;;;23.10;79.30;;;;;;5005739;28;97576;-61
2022/01/30 00:35:39;;;;;;;1.08;1.00;;;23.10;79.10;;;;;;5021110;28;99082;-61
2022/01/30 00:38:16;;;;;;;2.40;1.23;;;23.10;78.40;;;;;;5004003;28;95533;-61
2022/01/30 00:40:50;;;;;;;4.50;1.25;;;23.00;77.50;;;;;;5002747;28;96119;-61
2022/01/30 00:43:22;;;;;;;1.35;0.90;;;23.00;76.70;;;;;;4997714;28;96019;-61
2022/01/30 00:45:52;;;;;;;1.23;0.90;;;23.00;76.60;;;;;;5003666;27;97031;-60
2022/01/30 00:48:22;;;;;;;1.60;0.90;;;23.00;75.80;;;;;;5008935;28;95816;-61
2022/01/30 00:50:53;;;;;;;0.93;0.90;;;22.90;75.30;;;;;;5007692;28;95247;-61
2022/01/30 00:53:23;;;;;;;1.90;0.87;;;22.90;69.80;;;;;;5007816;28;95723;-61
2022/01/30 00:55:55;;;;;;;0.88;0.80;;;22.90;73.80;;;;;;5007778;28;95788;-60
2022/01/30 00:58:29;;;;;;;0.88;0.70;;;22.90;73.40;;;;;;5007289;28;95488;-60
2022/01/30 01:00:59;;;;;;;0.70;0.70;;;22.90;72.90;;;;;;5003742;28;96257;-61
2022/01/30 01:03:29;;;;;;;0.60;0.60;;;22.90;72.50;;;;;;5008293;28;95457;-61
2022/01/30 01:06:02;;;;;;;1.33;0.80;;;22.80;71.80;;;;;;5008015;28;96232;-60
2022/01/30 01:08:47;;;;;;;0.60;0.60;;;22.90;61.80;;;;;;5007781;28;95675;-61
2022/01/30 01:25:04;;;;;;;0.60;0.60;;;22.80;69.00;;;;;;5007616;28;95656;-61
2022/01/30 01:27:36;;;;;;;0.70;0.70;;;22.80;68.60;;;;;;5007653;28;96417;-61
2022/01/30 01:30:11;;;;;;;0.73;0.73;;;22.80;68.60;;;;;;5006128;28;95709;-61
2022/01/30 01:32:41;;;;;;;0.50;0.50;;;22.80;68.10;;;;;;5007434;28;95366;-61
2022/01/30 01:35:12;;;;;;;0.50;0.43;;;22.80;67.90;;;;;;5007674;28;95661;-61
2022/01/30 01:37:44;;;;;;;0.50;0.50;;;22.80;67.80;;;;;;5001842;28;96373;-61
2022/01/30 01:40:16;;;;;;;0.60;0.47;;;22.80;67.50;;;;;;5006425;28;97371;-61
2022/01/30 01:42:47;;;;;;;0.55;0.50;;;22.80;67.40;;;;;;5007831;28;95897;-60
2022/01/30 01:45:19;;;;;;;0.50;0.50;;;22.80;67.00;;;;;;5000061;28;96709;-60
2022/01/30 01:47:50;;;;;;;0.50;0.50;;;22.90;67.00;;;;;;5007703;28;97765;-61
2022/01/30 01:50:37;;;;;;;0.65;0.65;;;22.90;66.70;;;;;;5005839;28;95905;-61
2022/01/30 01:53:13;;;;;;;0.40;0.40;;;22.90;66.50;;;;;;5008282;28;95303;-61
2022/01/30 01:55:45;;;;;;;0.50;0.50;;;22.90;66.20;;;;;;5005588;28;95804;-61
2022/01/30 01:58:28;;;;;;;0.50;0.50;;;22.90;66.20;;;;;;5009798;28;98304;-61
2022/01/30 02:01:05;;;;;;;0.40;0.40;;;22.90;66.10;;;;;;5001812;28;95414;-61
2022/01/30 02:03:40;;;;;;;0.95;0.32;;;22.90;65.90;;;;;;5007630;28;95337;-60
2022/01/30 02:06:14;;;;;;;0.60;0.60;;;22.90;65.80;;;;;;5009801;28;95310;-61
2022/01/30 02:09:00;;;;;;;0.43;0.43;;;22.90;65.30;;;;;;5009051;28;98503;-61
2022/01/30 02:25:46;;;;;;;0.45;0.35;;;23.00;64.70;;;;;;5009512;28;95510;-61
2022/01/30 02:28:19;;;;;;;0.38;0.38;;;23.00;64.60;;;;;;5008863;28;96108;-61
2022/01/30 02:30:58;;;;;;;0.40;0.40;;;23.00;64.40;;;;;;5003323;28;97554;-60
2022/01/30 02:33:30;;;;;;;0.40;0.40;;;23.00;64.30;;;;;;5005768;28;96129;-60
2022/01/30 02:36:02;;;;;;;0.47;0.47;;;23.10;64.20;;;;;;5024756;28;98414;-60
2022/01/30 02:38:34;;;;;;;0.25;0.25;;;23.10;64.10;;;;;;5008133;28;95682;-61
2022/01/30 02:41:05;;;;;;;0.30;0.30;;;23.10;64.10;;;;;;5008230;28;99013;-61
2022/01/30 02:43:56;;;;;;;0.90;0.47;;;23.10;64.10;;;;;;5008259;28;98765;-61
2022/01/30 02:46:32;;;;;;;0.30;0.30;;;23.20;64.10;;;;;;5005172;28;95350;-60
2022/01/30 02:49:26;;;;;;;0.93;0.30;;;23.20;64.00;;;;;;5023501;28;95851;-62
2022/01/30 02:51:59;;;;;;;0.30;0.30;;;23.20;64.00;;;;;;5008452;28;97638;-61
2022/01/30 02:54:31;;;;;;;0.30;0.30;;;23.20;64.00;;;;;;5009171;28;95776;-61
2022/01/30 02:57:02;;;;;;;0.28;0.28;;;23.20;64.00;;;;;;5007999;28;95836;-61
2022/01/30 02:59:32;;;;;;;0.32;0.32;;;23.20;63.80;;;;;;5008296;28;95968;-61
2022/01/30 03:02:02;;;;;;;0.30;0.30;;;23.20;63.70;;;;;;5005827;27;96038;-60
2022/01/30 03:04:33;;;;;;;0.32;0.32;;;23.30;63.70;;;;;;5009143;28;98486;-60
2022/01/30 03:07:05;;;;;;;0.35;0.35;;;23.30;63.70;;;;;;5010542;28;95486;-61
2022/01/30 03:09:45;;;;;;;0.30;0.30;;;23.30;63.50;;;;;;5004774;28;95924;-61
2022/01/30 03:12:16;;;;;;;0.40;0.40;;;23.40;63.60;;;;;;5007567;28;96063;-61
2022/01/30 03:14:51;;;;;;;0.75;0.32;;;23.40;63.60;;;;;;5002069;28;97267;-61
2022/01/30 03:17:21;;;;;;;0.30;0.30;;;23.40;63.70;;;;;;4999299;28;95612;-61
2022/01/30 03:19:55;;;;;;;0.40;0.40;;;23.40;63.50;;;;;;5006202;28;95423;-61
2022/01/30 03:22:27;;;;;;;0.38;0.38;;;23.50;63.60;;;;;;5008041;28;96106;-61
2022/01/30 03:24:58;;;;;;;0.30;0.30;;;23.50;63.30;;;;;;5006960;28;98126;-61
2022/01/30 03:27:53;;;;;;;0.30;0.30;;;23.50;63.40;;;;;;5009305;28;95677;-61
2022/01/30 03:30:33;;;;;;;0.40;0.40;;;23.50;63.30;;;;;;5004005;28;97745;-60
2022/01/30 03:33:17;;;;;;;0.50;0.50;;;23.60;63.30;;;;;;5007879;28;96637;-60
2022/01/30 03:35:47;;;;;;;;;;;23.60;63.20;;;;;;5006525;28;95852;-61
2022/01/30 03:38:20;;;;;;;0.40;0.40;;;23.60;63.10;;;;;;5011245;28;96826;-60
2022/01/30 03:40:51;;;;;;;0.30;0.30;;;23.70;63.00;;;;;;5000497;28;95400;-60
2022/01/30 03:43:26;;;;;;;0.40;0.40;;;23.70;62.90;;;;;;5003819;28;98206;-60
2022/01/30 03:45:55;;;;;;;0.30;0.30;;;23.70;62.90;;;;;;5016009;28;96302;-61
2022/01/30 03:48:26;;;;;;;0.30;0.30;;;23.70;62.60;;;;;;5023278;28;95370;-61
2022/01/30 03:51:09;;;;;;;1.25;0.47;;;23.70;62.50;;;;;;5008714;28;95593;-61
2022/01/30 03:53:41;;;;;;;0.30;0.30;;;23.70;62.20;;;;;;5009881;28;96264;-62
2022/01/30 03:56:12;;;;;;;0.50;0.50;;;23.70;62.10;;;;;;5006667;28;97705;-61
2022/01/30 03:58:42;;;;;;;0.47;0.47;;;23.70;61.90;;;;;;5007015;28;95694;-62
2022/01/30 04:01:16;;;;;;;0.40;0.40;;;23.70;61.80;;;;;;5000174;28;97765;-61
2022/01/30 04:03:46;;;;;;;;;;;23.80;51.50;;;;;;4991851;28;98017;-61
2022/01/30 04:06:16;;;;;;;0.40;0.40;;;23.70;61.50;;;;;;5025593;27;97117;-61
2022/01/30 04:08:51;;;;;;;0.38;0.38;;;23.70;61.30;;;;;;5007305;28;95806;-62
2022/01/30 04:12:01;;;;;;;0.30;0.30;;;23.70;61.20;;;;;;4996306;28;95624;-61
2022/01/30 04:14:52;;;;;;;0.43;0.43;;;23.70;60.90;;;;;;4996878;28;96393;-61
2022/01/30 04:17:42;;;;;;;0.52;0.52;;;23.70;60.80;;;;;;5001783;28;97390;-61
2022/01/30 04:20:31;;;;;;;0.40;0.40;;;23.70;60.80;;;;;;5006661;28;95515;-61
2022/01/30 04:23:41;;;;;;;0.65;0.65;;;23.70;60.60;;;;;;4995334;28;95756;-62
2022/01/30 04:26:37;;;;;;;0.50;0.50;;;23.70;60.60;;;;;;5004631;28;96565;-61
2022/01/30 04:29:36;;;;;;;0.40;0.40;;;23.70;61.10;;;;;;5001533;28;95982;-61
2022/01/30 04:32:33;;;;;;;0.40;0.40;;;23.80;60.60;;;;;;5004475;28;95277;-61
2022/01/30 04:35:26;;;;;;;0.50;0.50;;;23.80;60.40;;;;;;5006906;28;96017;-62
2022/01/30 04:38:30;;;;;;;0.50;0.50;;;23.80;60.30;;;;;;4976809;28;95801;-61
2022/01/30 04:57:00;;;;;;;0.50;0.50;;;23.90;60.20;;;;;;4998919;28;96001;-61
2022/01/30 05:03:37;;;;;;;0.50;0.50;;;24.00;60.10;;;;;;4986071;28;104685;-61
2022/01/30 05:06:55;;;;;;;0.40;0.40;;;24.00;60.10;;;;;;5000662;28;95812;-61
2022/01/30 05:09:35;;;;;;;0.55;0.50;;;24.00;60.10;;;;;;5006781;28;95875;-60
2022/01/30 05:12:19;;;;;;;0.50;0.50;;;24.00;60.00;;;;;;4998147;28;95704;-61
2022/01/30 05:15:19;;;;;;;0.60;0.60;;;24.00;59.90;;;;;;4999122;28;96127;-61
2022/01/30 05:18:11;;;;;;;0.60;0.60;;;24.10;59.90;;;;;;5004058;28;95705;-62
2022/01/30 05:21:19;;;;;;;0.50;0.50;;;24.00;59.50;;;;;;4998219;28;95954;-61
2022/01/30 05:24:15;;;;;;;0.70;0.70;;;24.10;60.30;;;;;;4983781;28;95685;-61
2022/01/30 05:27:06;;;;;;;0.55;0.55;;;24.00;59.60;;;;;;5006023;28;97082;-61
2022/01/30 05:29:40;;;;;;;0.50;0.50;;;24.10;59.60;;;;;;5007704;28;95836;-61
2022/01/30 05:32:27;;;;;;;0.70;0.70;;;24.10;59.40;;;;;;5006583;28;95967;-61
2022/01/30 05:35:09;;;;;;;0.40;0.40;;;24.10;59.40;;;;;;5009346;28;95993;-61
2022/01/30 05:38:06;;;;;;;0.50;0.50;;;24.10;59.20;;;;;;5006697;28;96115;-62
2022/01/30 05:40:56;;;;;;;0.70;0.70;;;24.10;59.30;;;;;;5004454;28;96020;-61
2022/01/30 05:43:54;;;;;;;0.90;0.90;;;24.10;59.00;;;;;;5009113;28;95373;-61
2022/01/30 05:46:53;;;;;;;2.28;0.60;;;24.10;59.00;;;;;;5004456;28;95757;-62
2022/01/30 05:49:35;;;;;;;0.50;0.50;;;24.10;58.90;;;;;;4995700;28;97888;-61
2022/01/30 05:52:38;;;;;;;0.70;0.60;;;24.20;58.90;;;;;;4997462;28;97448;-60
2022/01/30 05:55:31;;;;;;;0.60;0.60;;;24.10;58.80;;;;;;5007442;28;95798;-61
2022/01/30 05:58:03;;;;;;;0.77;0.75;;;24.20;58.80;;;;;;5007697;28;96160;-61
2022/01/30 06:00:49;;;;;;;0.60;0.60;;;24.20;58.70;;;;;;4988881;28;96664;-62
2022/01/30 06:03:19;;;;;;;0.70;0.70;;;24.20;58.60;;;;;;5011118;28;95477;-61
2022/01/30 06:05:49;;;;;;;0.53;0.53;;;24.20;58.60;;;;;;5009229;28;96801;-61
2022/01/30 06:08:41;;;;;;;0.50;0.50;;;24.30;48.50;;;;;;5005379;28;95724;-62
2022/01/30 06:11:14;;;;;;;0.70;0.70;;;24.20;58.40;;;;;;5010279;28;96428;-61
2022/01/30 06:13:44;;;;;;;1.60;0.57;;;24.20;58.40;;;;;;5008637;28;95738;-61
2022/01/30 06:16:16;;;;;;;0.80;0.70;;;24.20;58.30;;;;;;5001995;28;96255;-60
2022/01/30 06:18:49;;;;;;;0.68;0.68;;;24.20;58.20;;;;;;5025522;28;95867;-61
2022/01/30 06:21:56;;;;;;;0.52;0.52;;;24.20;58.10;;;;;;4983835;28;96208;-60
2022/01/30 06:24:45;;;;;;;0.80;0.80;;;24.30;58.30;;;;;;5007427;28;95926;-61
2022/01/30 06:27:37;;;;;;;0.63;0.63;;;24.30;58.10;;;;;;5010620;28;95771;-61
2022/01/30 06:30:28;;;;;;;0.65;0.65;;;24.30;57.90;;;;;;5002051;28;95751;-60
2022/01/30 06:33:25;;;;;;;1.75;0.82;;;24.30;58.00;;;;;;4993004;28;96253;-61
2022/01/30 06:36:14;;;;;;;0.52;0.52;;;24.30;57.80;;;;;;5005561;28;95770;-61
2022/01/30 06:38:51;;;;;;;0.70;0.70;;;24.30;57.60;;;;;;5008315;28;95885;-61
2022/01/30 06:41:38;;;;;;;0.70;0.70;;;24.30;57.60;;;;;;5008998;28;95681;-61
2022/01/30 06:44:28;;;;;;;0.90;0.90;;;24.30;57.60;;;;;;5004475;28;97355;-61
2022/01/30 06:47:18;;;;;;;0.80;0.80;;;24.30;57.50;;;;;;4994783;28;95834;-61
2022/01/30 06:50:09;;;;;;;;;;;24.30;57.20;;;;;;4989901;28;97170;-60
2022/01/30 06:52:58;;;;;;;0.73;0.70;;;24.40;57.90;;;;;;5000139;28;95252;-61
2022/01/30 06:56:00;;;;;;;0.70;0.70;;;24.40;58.30;;;;;;5009230;28;96261;-62
2022/01/30 06:58:53;;;;;;;0.80;0.80;;;24.60;58.30;;;;;;4998816;28;95690;-61
2022/01/30 07:01:44;;;;;;;0.90;0.52;;;24.60;58.30;;;;;;4998964;28;95375;-61
2022/01/30 07:04:33;;;;;;;0.60;0.60;;;25.10;41.10;;;;;;5000545;28;95799;-61
2022/01/30 07:07:31;;;;;;;0.70;0.70;;;24.70;58.50;;;;;;5001922;28;96244;-61
2022/01/30 07:10:01;;;;;;;;;;;24.80;58.60;;;;;;5007797;28;95629;-61
2022/01/30 07:12:32;;;;;;;0.65;0.65;;;24.80;58.60;;;;;;5009514;28;95601;-61
2022/01/30 07:15:07;;;;;;;0.68;0.68;;;24.80;58.70;;;;;;5007587;28;95937;-61
2022/01/30 07:17:38;;;;;;;0.80;0.68;;;24.90;58.80;;;;;;5002082;28;96356;-61
2022/01/30 07:20:10;;;;;;;0.60;0.50;;;24.90;58.90;;;;;;5002275;28;96120;-60
2022/01/30 07:22:41;;;;;;;0.60;0.60;;;24.90;58.90;;;;;;5006239;28;96658;-62
2022/01/30 07:25:12;;;;;;;0.50;0.50;;;24.90;58.90;;;;;;5005605;28;96264;-61
2022/01/30 07:27:42;;;;;;;;;;;24.90;58.90;;;;;;5007774;28;96142;-61
2022/01/30 07:30:14;;;;;;;0.70;0.70;;;24.90;59.00;;;;;;5008521;28;95791;-61
2022/01/30 07:32:46;;;;;;;1.27;1.10;;;25.00;59.00;;;;;;5005156;28;95651;-61
2022/01/30 07:35:18;;;;;;;0.50;0.50;;;25.00;59.10;;;;;;5009001;28;95809;-61
2022/01/30 07:37:54;;;;;;;0.90;0.90;;;25.00;59.10;;;;;;5007358;28;98005;-61
2022/01/30 07:40:24;;;;;;;0.60;0.60;;;25.00;59.10;;;;;;5008015;28;96136;-61
2022/01/30 07:42:57;;;;;;;1.15;0.80;;;25.00;59.20;;;;;;5009095;28;95220;-61
2022/01/30 07:45:28;;;;;;;0.60;0.60;;;25.10;49.20;;;;;;5006265;28;95375;-62
2022/01/30 07:48:02;;;;;;;0.75;0.75;;;25.00;59.40;;;;;;5008875;28;96528;-61
2022/01/30 07:50:33;;;;;;;0.77;0.77;;;25.10;59.40;;;;;;5008148;28;96107;-61
2022/01/30 07:53:03;;;;;;;0.52;0.52;;;25.10;59.40;;;;;;5008834;28;95765;-62
2022/01/30 07:55:34;;;;;;;0.80;0.70;;;25.10;59.50;;;;;;5008251;28;97016;-61
2022/01/30 07:58:06;;;;;;;0.60;0.60;;;25.10;59.50;;;;;;5008858;28;96028;-61
2022/01/30 08:00:37;;;;;;;0.70;0.70;;;25.10;59.50;;;;;;5000716;27;95845;-61
2022/01/30 08:03:07;;;;;;;0.60;0.60;;;25.10;59.60;;;;;;5000739;28;95760;-62
2022/01/30 08:05:39;;;;;;;0.77;0.77;;;25.10;59.60;;;;;;5007326;28;95553;-62
2022/01/30 08:08:10;;;;;;;1.42;0.98;;;25.10;59.60;;;;;;5007694;28;96884;-61
2022/01/30 08:10:41;;;;;;;0.70;0.70;;;25.10;59.70;;;;;;5006122;28;95835;-61
2022/01/30 08:13:12;;;;;;;0.70;0.70;;;25.10;59.70;;;;;;5007740;28;95672;-61
2022/01/30 08:15:45;;;;;;;0.80;0.80;;;25.10;59.70;;;;;;5005773;27;98206;-61
2022/01/30 08:18:16;;;;;;;0.70;0.70;;;25.10;59.80;;;;;;5006427;28;96739;-60
2022/01/30 08:20:48;;;;;;;0.88;0.88;;;25.10;59.70;;;;;;5007178;28;95843;-62
2022/01/30 08:23:19;;;;;;;0.70;0.70;;;25.10;59.80;;;;;;5004901;28;95549;-62
2022/01/30 08:25:51;;;;;;;0.93;0.80;;;25.20;56.50;;;;;;5006741;28;96328;-61
2022/01/30 08:28:22;;;;;;;1.75;1.20;;;25.10;59.90;;;;;;5006087;28;96459;-61
2022/01/30 08:30:54;;;;;;;1.00;1.00;;;25.10;59.80;;;;;;4999069;28;96552;-61
2022/01/30 08:33:26;;;;;;;1.38;1.10;;;25.10;59.90;;;;;;4988962;28;95429;-61
2022/01/30 08:35:57;;;;;;;1.10;1.00;;;25.10;59.90;;;;;;5002781;28;96085;-61
2022/01/30 08:38:28;;;;;;;1.25;1.15;;;25.20;49.90;;;;;;5004645;28;96415;-61
2022/01/30 08:41:01;;;;;;;0.95;0.95;;;25.10;59.90;;;;;;5005229;28;95398;-62
2022/01/30 08:43:34;;;;;;;1.27;1.17;;;25.10;60.00;;;;;;5005801;28;96573;-61
2022/01/30 08:46:05;;;;;;;1.10;1.02;;;25.10;60.00;;;;;;5005307;28;96154;-61
2022/01/30 08:48:40;;;;;;;1.50;1.40;;;25.10;60.00;;;;;;5000322;28;95913;-62
2022/01/30 08:51:13;;;;;;;1.10;1.10;;;25.10;60.00;;;;;;5007285;28;95820;-61
2022/01/30 08:53:43;;;;;;;1.70;1.60;;;25.10;60.00;;;;;;5005584;28;95986;-62
2022/01/30 08:56:16;;;;;;;1.38;1.27;;;25.10;60.10;;;;;;5004990;28;96113;-61
2022/01/30 08:58:46;;;;;;;1.42;1.33;;;25.10;60.10;;;;;;5002597;28;96001;-61
2022/01/30 09:01:17;;;;;;;1.10;1.03;;;25.10;60.20;;;;;;5005007;28;96361;-62
2022/01/30 09:03:47;;;;;;;;;;;25.20;50.50;;;;;;5011007;28;95581;-62
2022/01/30 09:06:18;;;;;;;1.20;1.10;;;25.10;60.20;;;;;;5004574;28;95297;-61
2022/01/30 09:08:48;;;;;;;1.10;1.10;;;25.00;60.20;;;;;;5004298;28;96167;-61
2022/01/30 09:11:19;;;;;;;1.60;1.35;;;25.10;60.30;;;;;;5005612;28;95524;-61
2022/01/30 09:13:50;;;;;;;1.73;1.60;;;25.10;60.50;;;;;;5008892;28;95669;-61
2022/01/30 09:16:22;;;;;;;1.30;1.17;;;25.10;60.50;;;;;;5004741;28;95489;-62
2022/01/30 09:18:53;;;;;;;1.00;1.00;;;25.10;60.70;;;;;;5010302;28;96402;-61
2022/01/30 09:21:25;;;;;;;1.38;1.27;;;25.10;60.80;;;;;;5009509;28;95402;-62
2022/01/30 09:23:56;;;;;;;1.10;1.10;;;25.10;60.80;;;;;;5003439;27;97304;-62
2022/01/30 09:26:27;;;;;;;1.50;1.40;;;25.10;60.90;;;;;;5004426;28;95871;-61
2022/01/30 09:28:57;;;;;;;2.10;1.77;;;25.10;60.90;;;;;;5007982;28;96662;-62
2022/01/30 09:31:48;;;;;;;;;;;25.10;61.00;;;;;;5001238;28;95997;-60
2022/01/30 09:34:19;;;;;;;4.70;1.93;;;25.00;58.20;;;;;;5008998;28;95877;-61
2022/01/30 09:36:51;;;;;;;2.33;1.60;;;24.90;66.20;;;;;;5008945;28;95705;-62
2022/01/30 09:39:23;;;;;;;4.32;1.40;;;24.70;66.30;;;;;;4999438;28;97601;-62
2022/01/30 09:41:55;;;;;;;1.60;1.50;;;24.60;66.80;;;;;;5003670;28;96843;-60
2022/01/30 09:44:26;;;;;;;3.05;1.30;;;24.50;67.90;;;;;;5005697;28;95396;-60
2022/01/30 09:47:00;;;;;;;1.98;1.65;;;24.40;69.20;;;;;;5001098;28;96863;-60
2022/01/30 09:49:32;;;;;;;2.90;1.70;;;24.40;69.80;;;;;;5001739;28;97041;-61
2022/01/30 09:52:02;;;;;;;2.35;1.10;;;24.40;70.50;;;;;;5020564;28;97554;-60
2022/01/30 09:54:34;;;;;;;1.58;1.30;;;24.30;71.00;;;;;;5009207;28;95773;-59
2022/01/30 09:57:06;;;;;;;1.58;1.20;;;24.30;72.20;;;;;;5006025;28;95422;-60
2022/01/30 09:59:39;;;;;;;2.22;1.30;;;24.20;73.10;;;;;;5005195;28;96996;-60
2022/01/30 10:02:10;;;;;;;1.85;1.25;;;24.10;73.20;;;;;;5002336;28;95669;-61
2022/01/30 10:04:41;;;;;;;1.17;1.15;;;24.10;73.50;;;;;;5002407;28;95647;-61
2022/01/30 10:07:17;;;;;;;1.38;1.20;;;24.10;74.00;;;;;;5001744;28;96062;-61
2022/01/30 10:09:49;;;;;;;1.50;1.27;;;24.00;74.20;;;;;;5006053;28;96686;-60
2022/01/30 10:12:28;;;;;;;1.45;1.35;;;23.90;74.50;;;;;;5002765;28;95633;-60
2022/01/30 10:15:04;;;;;;;2.22;1.48;;;23.80;74.90;;;;;;5002549;28;96371;-60
2022/01/30 10:17:48;;;;;;;2.35;1.60;;;23.70;75.40;;;;;;5003492;28;96324;-60
2022/01/30 10:20:39;;;;;;;1.83;1.20;;;23.60;75.60;;;;;;5009769;28;96537;-61
2022/01/30 10:23:11;;;;;;;1.75;1.40;;;23.60;76.40;;;;;;5009784;28;95491;-60
2022/01/30 10:25:48;;;;;;;1.60;1.50;;;23.50;75.50;;;;;;5009311;28;95322;-61
2022/01/30 10:28:22;;;;;;;1.10;1.10;;;23.50;76.90;;;;;;5009746;28;96068;-60
2022/01/30 10:31:02;;;;;;;3.72;1.30;;;23.50;76.90;;;;;;5002422;28;96975;-60
2022/01/30 10:33:52;;;;;;;2.80;1.48;;;23.20;76.40;;;;;;5006575;28;96496;-59
2022/01/30 10:36:29;;;;;;;3.17;1.60;;;23.00;77.60;;;;;;5004878;28;95928;-62
2022/01/30 10:39:15;;;;;;;4.15;1.42;;;22.90;78.80;;;;;;5008301;28;95821;-59
2022/01/30 10:41:53;;;;;;;4.38;1.70;;;23.00;69.70;;;;;;5007144;28;96921;-59
2022/01/30 10:44:24;;;;;;;4.13;1.23;;;22.90;79.50;;;;;;5004598;28;96412;-60
2022/01/30 10:46:56;;;;;;;1.48;1.38;;;22.80;79.20;;;;;;5001414;28;96290;-60
2022/01/30 10:49:27;;;;;;;1.55;1.45;;;22.90;69.20;;;;;;5009657;28;95868;-60
2022/01/30 10:52:02;;;;;;;1.75;1.13;;;22.80;79.30;;;;;;5005101;28;96412;-60
2022/01/30 10:54:34;;;;;;;3.50;1.20;;;22.60;79.50;;;;;;5002964;28;96459;-60
2022/01/30 10:57:12;;;;;;;1.83;1.63;;;22.60;73.30;;;;;;5001761;28;95853;-60
2022/01/30 10:59:43;;;;;;;1.92;1.30;;;22.60;80.50;;;;;;4998355;28;95896;-61
2022/01/30 11:02:23;;;;;;;1.90;1.20;;;22.50;80.60;;;;;;4996660;28;96098;-62
2022/01/30 11:05:09;;;;;;;2.33;1.10;;;22.50;80.90;;;;;;5004122;28;96823;-60
2022/01/30 11:07:39;;;;;;;2.50;1.35;;;22.50;80.60;;;;;;5003143;28;96537;-60
2022/01/30 11:10:18;;;;;;;1.75;1.30;;;22.40;80.90;;;;;;5007189;28;95877;-60
2022/01/30 11:13:07;;;;;;;4.25;1.52;;;22.30;81.40;;;;;;5006441;28;96064;-60
2022/01/30 11:15:43;;;;;;;2.42;1.48;;;22.30;81.60;;;;;;5002045;28;96540;-60
2022/01/30 11:18:17;;;;;;;1.33;1.23;;;22.20;82.10;;;;;;5006388;28;95877;-59
2022/01/30 11:20:49;;;;;;;3.60;1.70;;;22.30;82.30;;;;;;5008595;28;95439;-60
2022/01/30 11:23:23;;;;;;;3.72;1.60;;;22.40;72.70;;;;;;5001479;28;97070;-60
2022/01/30 11:25:55;;;;;;;1.70;1.10;;;22.30;81.60;;;;;;5003987;28;97596;-60
2022/01/30 11:28:27;;;;;;;2.78;1.42;;;22.30;82.40;;;;;;5007953;28;98247;-59
2022/01/30 11:30:58;;;;;;;3.28;1.20;;;22.30;82.20;;;;;;5002247;27;95899;-61
2022/01/30 11:33:32;;;;;;;2.30;1.52;;;22.30;82.10;;;;;;4976577;28;97518;-55
2022/01/30 11:36:04;;;;;;;1.50;1.40;;;22.10;83.20;;;;;;5006121;28;96032;-56
2022/01/30 11:38:37;;;;;;;1.17;1.10;;;22.10;83.50;;;;;;5000040;28;95891;-55
2022/01/30 11:41:12;;;;;;;2.05;1.48;;;22.10;83.50;;;;;;5006715;28;95458;-49
2022/01/30 11:44:20;;;;;;;1.95;1.08;;;22.40;83.10;;;;;;5005618;28;96426;-51
2022/01/30 11:47:04;;;;;;;1.23;1.13;;;22.50;82.40;;;;;;4994203;28;96280;-45
2022/01/30 11:49:45;;;;;;;0.88;0.88;;;22.50;81.60;;;;;;5004103;28;95288;-45
2022/01/30 11:52:17;;;;;;;1.27;1.17;;;22.40;82.40;;;;;;5007534;28;95934;-42
2022/01/30 11:54:57;;;;;;;0.90;0.90;;;22.30;82.70;;;;;;5006371;28;96329;-42
2022/01/30 11:57:29;;;;;;;1.50;1.10;;;22.40;82.30;;;;;;5004343;28;96135;-42
2022/01/30 12:00:00;;;;;;;1.75;1.10;;;22.20;83.00;;;;;;5006052;28;96213;-44
2022/01/30 12:02:39;;;;;;;3.00;1.13;;;22.00;82.90;;;;;;4995968;28;98541;-42
2022/01/30 12:05:10;;;;;;;4.30;1.30;;;21.90;83.30;;;;;;5004930;28;96557;-42
2022/01/30 12:07:48;;;;;;;1.30;1.20;;;21.70;83.90;;;;;;5004845;28;96360;-43
2022/01/30 12:10:26;;;;;;;3.28;1.10;;;21.70;84.50;;;;;;5004288;28;96267;-41
2022/01/30 12:12:58;;;;;;;1.02;1.02;;;21.80;84.70;;;;;;4999114;28;95977;-44
2022/01/30 12:15:45;;;;;;;1.02;0.90;;;21.90;84.30;;;;;;5001266;28;96142;-40
2022/01/30 12:18:51;;;;;;;2.90;1.00;;;21.80;84.10;;;;;;5004499;28;102137;-43
2022/01/30 12:21:28;;;;;;;1.20;1.10;;;21.80;84.10;;;;;;4961552;28;95730;-43
2022/01/30 12:24:25;;;;;;;3.70;1.02;;;21.90;83.70;;;;;;4958905;28;98914;-42
2022/01/30 12:27:04;;;;;;;3.60;1.15;;;21.90;84.30;;;;;;4959302;28;98682;-42
2022/01/30 12:29:40;;;;;;;2.63;1.30;;;21.90;83.70;;;;;;4956407;28;96061;-42
2022/01/30 12:32:24;;;;;;;2.08;1.10;;;21.70;83.70;;;;;;4951193;28;95646;-42
2022/01/30 12:35:00;;;;;;;2.35;1.15;;;21.70;84.50;;;;;;4960445;28;95731;-44
2022/01/30 12:37:36;;;;;;;1.00;1.00;;;21.70;84.80;;;;;;4962186;28;95900;-43
2022/01/30 12:40:17;;;;;;;3.90;0.90;;;21.70;84.90;;;;;;4957841;28;95979;-42
2022/01/30 12:42:47;;;;;;;4.78;1.02;;;21.80;84.50;;;;;;4960435;28;95981;-43
2022/01/30 12:45:20;;;;;;;1.75;1.05;;;21.80;84.30;;;;;;4964478;28;95814;-41
2022/01/30 12:47:59;;;;;;;0.80;0.80;;;21.80;83.90;;;;;;4962390;28;97222;-43
2022/01/30 12:50:32;;;;;;;1.33;1.15;;;21.70;83.90;;;;;;4960692;28;95927;-44
2022/01/30 12:53:06;;;;;;;3.30;1.00;;;21.70;84.00;;;;;;4956476;28;96114;-42
2022/01/30 12:55:39;;;;;;;2.78;1.10;;;21.60;84.60;;;;;;4985059;28;95622;-43
2022/01/30 12:58:10;;;;;;;1.10;1.00;;;21.70;84.40;;;;;;5006944;28;95473;-43
2022/01/30 13:00:40;;;;;;;1.85;0.98;;;21.60;84.30;;;;;;4980530;28;95492;-45
2022/01/30 13:03:20;;;;;;;1.52;1.02;;;21.60;84.70;;;;;;5003220;28;95878;-43
2022/01/30 13:05:53;;;;;;;1.30;1.00;;;21.60;84.50;;;;;;5002153;28;95933;-43
2022/01/30 13:08:48;;;;;;;3.58;1.13;;;21.70;75.60;;;;;;5002465;28;96929;-43
2022/01/30 13:11:20;;;;;;;3.08;1.15;;;21.70;84.60;;;;;;4998744;28;96581;-45
2022/01/30 13:13:57;;;;;;;1.73;1.60;;;21.60;84.40;;;;;;5004734;28;95812;-40
2022/01/30 13:16:31;;;;;;;2.30;1.10;;;21.50;84.00;;;;;;4997239;28;96803;-42
2022/01/30 13:19:06;;;;;;;5.53;1.10;;;21.40;84.30;;;;;;5002056;28;96418;-42
2022/01/30 13:21:39;;;;;;;1.25;1.00;;;21.40;85.00;;;;;;5004342;28;95836;-41
2022/01/30 13:24:16;;;;;;;1.67;1.00;;;21.40;84.40;;;;;;4996863;28;96524;-41
2022/01/30 13:26:48;;;;;;;1.38;1.00;;;21.30;84.80;;;;;;5004625;28;95943;-41
2022/01/30 13:29:21;;;;;;;4.35;1.20;;;21.30;85.00;;;;;;4998828;28;96732;-41
2022/01/30 13:31:54;;;;;;;2.38;1.25;;;21.30;84.80;;;;;;4994802;28;96028;-41
2022/01/30 13:34:30;;;;;;;1.30;1.20;;;21.30;84.60;;;;;;5003947;28;95980;-41
2022/01/30 13:37:15;;;;;;;2.72;1.20;;;21.30;85.30;;;;;;5002827;28;95576;-41
2022/01/30 13:42:44;;;;;;;1.30;1.20;;;21.20;85.00;;;;;;5002440;28;95793;-42
2022/01/30 13:48:03;;;;;;;3.05;1.00;;;21.00;85.80;;;;;;5002461;28;96205;-43
2022/01/30 13:50:43;;;;;;;1.40;1.00;;;21.00;85.80;;;;;;5006437;28;96131;-43
2022/01/30 13:53:25;;;;;;;1.00;1.00;;;21.70;84.30;;;;;;5005479;28;95868;-43
2022/01/30 13:55:58;;;;;;;1.23;0.85;;;22.10;82.40;;;;;;5008938;28;95946;-44
2022/01/30 13:58:48;;;;;;;3.95;1.20;;;21.90;82.50;;;;;;5006666;28;95732;-42
2022/01/30 14:01:30;;;;;;;2.38;1.27;;;21.80;83.20;;;;;;4999683;28;96863;-45
2022/01/30 14:04:09;;;;;;;2.15;1.20;;;21.70;83.40;;;;;;5006710;28;95775;-42
2022/01/30 14:06:42;;;;;;;1.20;1.10;;;21.40;82.90;;;;;;5005721;28;96000;-42
2022/01/30 14:09:19;;;;;;;3.53;1.60;;;21.20;84.00;;;;;;5006464;28;95338;-41
2022/01/30 14:12:03;;;;;;;1.85;1.13;;;21.10;85.10;;;;;;5021958;28;96884;-41
2022/01/30 14:14:37;;;;;;;3.30;1.10;;;21.00;84.80;;;;;;5007245;28;95958;-46
2022/01/30 14:17:11;;;;;;;3.53;1.08;;;21.00;85.90;;;;;;5003942;28;95987;-41
2022/01/30 14:19:50;;;;;;;1.88;1.05;;;21.40;84.30;;;;;;5001106;28;95943;-42
2022/01/30 14:22:29;;;;;;;3.60;1.42;;;21.50;84.20;;;;;;5001747;28;97537;-48
2022/01/30 14:25:07;;;;;;;1.50;1.00;;;21.50;83.80;;;;;;5005582;28;95714;-45
2022/01/30 14:27:40;;;;;;;1.85;1.30;;;21.40;83.80;;;;;;5004114;28;95651;-43
2022/01/30 14:30:13;;;;;;;1.48;1.25;;;21.30;84.10;;;;;;4997301;28;95922;-44
2022/01/30 14:32:48;;;;;;;2.50;1.10;;;21.70;83.60;;;;;;5004414;28;104055;-44
2022/01/30 14:35:19;;;;;;;1.48;1.30;;;22.10;81.60;;;;;;4999832;28;95946;-47
2022/01/30 14:37:50;;;;;;;2.40;1.23;;;22.30;80.90;;;;;;5003574;28;95964;-44